ADDS METAR Data INFO
IDs: Format: Raw Decoded Include TAF

Data at: 0425 UTC 26 May 2018

KXBP 260415Z AUTO 19009KT 10SM CLR 26/15 A2988 RMK AO2 LTG DSNT SW T02580148
KXBP 260355Z AUTO 25008KT 10SM SCT090 26/14 A2992 RMK AO2 T02550139
KXBP 260335Z AUTO 28010KT 10SM SCT100 25/13 A2993 RMK AO2 LTG DSNT SW T02520134
KXBP 260315Z AUTO 18005KT 10SM CLR 25/13 A2987 RMK AO2 T02510130
KXBP 260255Z AUTO 17006KT 10SM CLR 25/13 A2986 RMK AO2 T02500134
KXBP 260235Z AUTO 17005KT 10SM CLR 25/14 A2986 RMK AO2 T02490138
KXBP 260215Z AUTO 14004KT 10SM CLR 25/13 A2986 RMK AO2 T02510133
KXBP 260155Z AUTO 14004KT 10SM CLR 26/13 A2986 RMK AO2 LTG DSNT SW T02560131
KXBP 260135Z AUTO 12006KT 10SM CLR 26/13 A2985 RMK AO2 T02620130
KXBP 260115Z AUTO 13006KT 10SM CLR 27/13 A2985 RMK AO2 T02700127
KXBP 260055Z AUTO 14009G17KT 10SM CLR 28/12 A2985 RMK AO2 T02770124
KXBP 260035Z AUTO 14009G18KT 10SM CLR 28/13 A2985 RMK AO2 T02830125
KXBP 260015Z AUTO 14015G18KT 10SM CLR 29/12 A2985 RMK AO2 LTG DSNT SW T02900123
KXBP 252355Z AUTO 14012G17KT 10SM CLR 30/13 A2985 RMK AO2 LTG DSNT S T02960126 10325 20296
KXBP 252335Z AUTO 16012G19KT 10SM CLR 30/13 A2985 RMK AO2 T03020131
KXBP 252315Z AUTO 14011G19KT 10SM CLR 31/14 A2986 RMK AO2 T03060137
KXBP 252255Z AUTO 14008G19KT 10SM CLR 31/17 A2986 RMK AO2 LTG DSNT SW T03100166
KXBP 252235Z AUTO 14011G20KT 10SM CLR 31/19 A2988 RMK AO2 LTG DSNT S AND SW T03110189
KXBP 252215Z AUTO 13012G18KT 10SM VCTS CLR 31/19 A2988 RMK AO2 LTG DSNT SW T03120190
KXBP 252155Z AUTO 13012G20KT 10SM CLR 31/17 A2989 RMK AO2 LTG DSNT SW T03140171
KXBP 252135Z AUTO 12014G21KT 10SM CLR 32/18 A2989 RMK AO2 LTG DSNT SW T03170177
KXBP 252115Z AUTO 12013KT 10SM CLR 32/19 A2990 RMK AO2 T03170185
KXBP 252055Z AUTO 11013G18KT 10SM CLR 32/20 A2990 RMK AO2 LTG DSNT NE AND SW T03160196
KXBP 252035Z AUTO 12013G17KT 10SM CLR 30/20 A2991 RMK AO2 T03020197
KXBP 252015Z AUTO 11012G17KT 10SM CLR 31/20 A2992 RMK AO2 LTG DSNT NE T03130200
KXBP 251955Z AUTO 12011G19KT 10SM CLR 31/20 A2993 RMK AO2 LTG DSNT NE T03110201
KXBP 251935Z AUTO 10013G18KT 10SM SCT049 SCT070 32/20 A2993 RMK AO2 LTG DSNT E T03150203
KXBP 251915Z AUTO 09009G14KT 10SM SCT049 SCT070 31/20 A2993 RMK AO2 LTG DSNT E T03110201
KXBP 251855Z AUTO 09008G14KT 10SM SCT049 32/20 A2993 RMK AO2 LTG DSNT E T03180203
KXBP 251835Z AUTO 08009G15KT 050V110 10SM SCT047 SCT055 31/20 A2994 RMK AO2 T03140201
KXBP 251815Z AUTO 05007KT 10SM CLR 32/20 A2995 RMK AO2 T03220201
KXBP 251755Z AUTO 12003KT 10SM SCT075 SCT090 32/20 A2996 RMK AO2 LTG DSNT NE AND E T03160197 10321 20216
KXBP 251735Z AUTO 13004KT 10SM SCT090 32/20 A2997 RMK AO2 LTG DSNT NE T03210200
KXBP 251715Z AUTO 26003KT 10SM SCT090 31/19 A2997 RMK AO2 LTG DSNT NE T03100194
KXBP 251655Z AUTO 21006KT 10SM CLR 31/20 A2997 RMK AO2 LTG DSNT NE T03100196
KXBP 251635Z AUTO 18005KT 10SM CLR 31/20 A2998 RMK AO2 LTG DSNT NE T03100197
KXBP 251615Z AUTO 19004KT 10SM CLR 31/20 A2998 RMK AO2 LTG DSNT NE T03070200
KXBP 251555Z AUTO 21006KT 10SM CLR 30/20 A2998 RMK AO2 LTG DSNT N T03020198
KXBP 251535Z AUTO 22004KT 10SM CLR 30/20 A2998 RMK AO2 LTG DSNT N AND NE T03000204
KXBP 251515Z AUTO 22008KT 10SM CLR 29/20 A2998 RMK AO2 LTG DSNT NE T02930203
KXBP 251455Z AUTO 20007KT 10SM CLR 29/21 A2998 RMK AO2 LTG DSNT N T02900205
KXBP 251435Z AUTO 20008KT 10SM CLR 28/21 A2998 RMK AO2 LTG DSNT N AND NE T02840205
KXBP 251415Z AUTO 20008KT 180V240 10SM CLR 28/21 A2998 RMK AO2 T02770205
KXBP 251355Z AUTO 19008KT 10SM CLR 27/21 A2998 RMK AO2 T02700205
KXBP 251335Z AUTO 19005KT 10SM CLR 26/21 A2998 RMK AO2 T02630205
KXBP 251315Z AUTO 18005KT 10SM CLR 26/20 A2999 RMK AO2 T02550203
KXBP 251255Z AUTO 00000KT 10SM CLR 25/20 A2998 RMK AO2 T02480201
KXBP 251235Z AUTO 19003KT 10SM CLR 23/20 A2998 RMK AO2 T02320203
KXBP 251215Z AUTO 00000KT 10SM CLR 22/20 A2998 RMK AO2 T02200199
KXBP 251155Z AUTO 00000KT 10SM CLR 22/20 A2998 RMK AO2 T02160195 10242 20216
KXBP 251135Z AUTO 00000KT 10SM CLR 23/19 A2997 RMK AO2 T02280192
KXBP 251115Z AUTO 16004KT 10SM CLR 23/19 A2996 RMK AO2 T02280193
KXBP 251055Z AUTO 18004KT 10SM CLR 23/19 A2997 RMK AO2 T02330193
KXBP 251035Z AUTO 20005KT 10SM CLR 24/19 A2996 RMK AO2 T02350194
KXBP 251015Z AUTO 19005KT 10SM CLR 23/19 A2996 RMK AO2 T02310194
KXBP 250955Z AUTO 18005KT 10SM CLR 23/19 A2997 RMK AO2 T02300193
KXBP 250935Z AUTO 18005KT 10SM CLR 23/19 A2998 RMK AO2 T02300192
KXBP 250915Z AUTO 18006KT 10SM CLR 23/19 A2998 RMK AO2 T02340192
KXBP 250855Z AUTO 17005KT 10SM CLR 24/19 A2998 RMK AO2 T02370191
KXBP 250835Z AUTO 17006KT 10SM CLR 24/19 A2998 RMK AO2 T02410191
KXBP 250815Z AUTO 18006KT 10SM CLR 24/19 A2999 RMK AO2 T02390190
KXBP 250755Z AUTO 16005KT 10SM CLR 24/19 A2999 RMK AO2 T02360189
KXBP 250735Z AUTO 17005KT 10SM SCT095 24/19 A2999 RMK AO2 T02380189
KXBP 250715Z AUTO 14005KT 10SM SCT095 24/19 A2999 RMK AO2 T02390188
KXBP 250655Z AUTO 15006KT 10SM CLR 24/19 A3000 RMK AO2 T02350186
KXBP 250635Z AUTO 14007KT 10SM CLR 24/19 A3000 RMK AO2 T02420185
KXBP 250615Z AUTO 15007KT 10SM CLR 24/18 A3000 RMK AO2 T02410182
KXBP 250555Z AUTO 16006KT 10SM CLR 24/18 A3002 RMK AO2 T02410180 10303 20241 403180181
KXBP 250535Z AUTO 16007KT 10SM CLR 25/18 A3002 RMK AO2 T02450180
KXBP 250515Z AUTO 16006KT 10SM CLR 25/18 A3002 RMK AO2 T02460180
KXBP 250455Z AUTO 16005KT 10SM CLR 25/18 A3002 RMK AO2 T02460178
KXBP 250435Z AUTO 15005KT 10SM CLR 25/18 A3002 RMK AO2 T02460177
KXBP 250415Z AUTO 15005KT 10SM CLR 25/18 A3003 RMK AO2 T02510176
KXBP 250355Z AUTO 16006KT 10SM CLR 25/18 A3003 RMK AO2 T02530177
KXBP 250335Z AUTO 16006KT 10SM CLR 25/18 A3003 RMK AO2 T02500180
KXBP 250315Z AUTO 15004KT 10SM CLR 25/18 A3002 RMK AO2 T02510180
KXBP 250255Z AUTO 14005KT 10SM CLR 25/18 A3002 RMK AO2 T02510181
KXBP 250235Z AUTO 15003KT 10SM CLR 25/18 A3000 RMK AO2 T02500181
KXBP 250215Z AUTO 14003KT 10SM CLR 26/18 A3000 RMK AO2 T02570180
KXBP 250155Z AUTO 00000KT 10SM CLR 26/18 A3000 RMK AO2 T02600178
KXBP 250135Z AUTO 13003KT 10SM CLR 27/18 A3000 RMK AO2 T02700177
KXBP 250115Z AUTO 13004KT 10SM CLR 28/18 A2999 RMK AO2 T02800177
KXBP 250055Z AUTO 12005KT 10SM CLR 29/18 A2999 RMK AO2 T02870177
KXBP 250035Z AUTO 13005KT 10SM CLR 30/18 A2999 RMK AO2 T02950177
KXBP 250015Z AUTO 13006KT 10SM CLR 30/17 A2999 RMK AO2 T03000174
KXBP 242355Z AUTO 13007KT 10SM CLR 30/18 A2999 RMK AO2 T03030175 10318 20293
KXBP 242335Z AUTO 12005KT 10SM CLR 31/17 A2999 RMK AO2 T03070173
KXBP 242315Z AUTO 13007KT 10SM CLR 31/18 A3000 RMK AO2 T03080176
KXBP 242255Z AUTO 13006KT 10SM CLR 31/18 A3000 RMK AO2 T03110181
KXBP 242235Z AUTO 17007KT 110V190 10SM CLR 31/18 A3000 RMK AO2 T03110182
KXBP 242215Z AUTO 14005KT 10SM SCT049 31/18 A3002 RMK AO2 T03110184
KXBP 242155Z AUTO 16006KT 10SM SCT050 31/18 A3002 RMK AO2 T03140179
KXBP 242135Z AUTO 18005KT 10SM CLR 32/17 A3002 RMK AO2 T03150174
KXBP 242115Z AUTO 14006KT 10SM SCT049 32/18 A3003 RMK AO2 T03160178
KXBP 242055Z AUTO 15004KT 10SM CLR 31/18 A3004 RMK AO2 T03060179
KXBP 242035Z AUTO 17006KT 10SM SCT048 SCT080 31/18 A3005 RMK AO2 T03070175
KXBP 242015Z AUTO 11007KT 10SM SCT048 31/18 A3005 RMK AO2 T03100176
KXBP 241955Z AUTO 16005KT 10SM SCT046 31/18 A3005 RMK AO2 T03110177
KXBP 241935Z AUTO 19007KT 10SM SCT044 31/18 A3006 RMK AO2 T03120184
KXBP 241915Z AUTO 17005G08KT 10SM CLR 31/18 A3006 RMK AO2 T03070179
KXBP 241855Z AUTO 15008KT 10SM CLR 31/19 A3006 RMK AO2 T03050186
KXBP 241835Z AUTO 15006KT 10SM SCT039 30/18 A3007 RMK AO2 T03040182
KXBP 241815Z AUTO 18004KT 10SM SCT037 30/19 A3008 RMK AO2 T03020185
KXBP 241755Z AUTO 19006KT 10SM SCT035 29/19 A3009 RMK AO2 T02930186 10298 20182
KXBP 241735Z AUTO 25003KT 10SM SCT031 29/20 A3010 RMK AO2 T02900196
KXBP 241715Z AUTO 12006KT 10SM SCT029 29/19 A3010 RMK AO2 T02850192
KXBP 241655Z AUTO 13007KT 10SM SCT027 28/19 A3010 RMK AO2 T02830188
KXBP 241635Z AUTO 17006KT 10SM SCT027 28/20 A3011 RMK AO2 T02790195